createdAt,value
2018-02-17T00:01:21.857Z,8.55
2018-02-17T00:03:49.407Z,8.58
2018-02-17T00:06:16.950Z,8.56
2018-02-17T00:08:44.603Z,8.51
2018-02-17T00:11:12.201Z,8.50
2018-02-17T00:13:39.745Z,8.49
2018-02-17T00:16:07.323Z,8.49
2018-02-17T00:18:34.851Z,8.41
2018-02-17T00:21:02.397Z,8.46
2018-02-17T00:23:30.060Z,8.36
2018-02-17T00:25:57.603Z,8.42
2018-02-17T00:28:25.141Z,8.42
2018-02-17T00:30:52.729Z,8.43
2018-02-17T00:33:20.268Z,8.40
2018-02-17T00:35:47.791Z,8.39
2018-02-17T00:38:15.341Z,8.37
2018-02-17T00:40:42.870Z,8.36
2018-02-17T00:43:10.395Z,8.36
2018-02-17T00:45:37.946Z,8.33
2018-02-17T00:48:05.479Z,8.32
2018-02-17T00:50:33.014Z,8.30
2018-02-17T00:53:00.562Z,8.30
2018-02-17T00:55:28.082Z,8.29
2018-02-17T00:57:55.599Z,8.27
2018-02-17T01:00:23.253Z,8.27
2018-02-17T01:02:50.843Z,8.26
2018-02-17T01:05:18.371Z,8.26
2018-02-17T01:07:45.916Z,8.24
2018-02-17T01:10:13.469Z,8.22
2018-02-17T01:12:41.289Z,8.22
2018-02-17T01:15:08.874Z,8.23
2018-02-17T01:17:36.406Z,8.22
2018-02-17T01:20:03.946Z,8.24
2018-02-17T01:22:31.495Z,8.20
2018-02-17T01:24:59.038Z,8.20
2018-02-17T01:27:26.561Z,8.19
2018-02-17T01:29:54.116Z,8.18
2018-02-17T01:32:21.676Z,8.15
2018-02-17T01:34:49.212Z,8.16
2018-02-17T01:37:17.124Z,8.11
2018-02-17T01:39:44.697Z,8.13
2018-02-17T01:42:12.227Z,8.10
2018-02-17T01:44:39.754Z,8.09
2018-02-17T01:47:07.295Z,8.10
2018-02-17T01:49:34.820Z,8.10
2018-02-17T01:52:02.355Z,8.10
2018-02-17T01:54:29.911Z,8.09
2018-02-17T01:56:57.445Z,8.08
2018-02-17T01:59:24.986Z,8.08
2018-02-17T02:01:52.582Z,8.08
2018-02-17T02:04:20.111Z,8.06
2018-02-17T02:06:47.625Z,8.05
2018-02-17T02:09:15.188Z,8.09
2018-02-17T02:11:42.737Z,8.06
2018-02-17T02:14:10.285Z,7.97
2018-02-17T02:16:37.852Z,8.01
2018-02-17T02:19:05.392Z,7.98
2018-02-17T02:21:32.931Z,7.99
2018-02-17T02:24:00.487Z,7.98
2018-02-17T02:26:28.031Z,8.04
2018-02-17T02:28:55.567Z,8.02
2018-02-17T02:31:23.114Z,8.01
2018-02-17T02:33:50.643Z,8.03
2018-02-17T02:36:18.172Z,8.01
2018-02-17T02:38:45.729Z,7.96
2018-02-17T02:41:13.282Z,8.02
2018-02-17T02:43:40.841Z,8.06
2018-02-17T02:46:08.382Z,8.04
2018-02-17T02:48:35.901Z,8.03
2018-02-17T02:51:03.421Z,8.03
2018-02-17T02:53:30.982Z,8.00
2018-02-17T02:55:58.515Z,8.00
2018-02-17T02:58:26.163Z,8.02
2018-02-17T03:00:53.742Z,8.03
2018-02-17T03:03:21.267Z,7.98
2018-02-17T03:05:48.805Z,7.97
2018-02-17T03:08:16.351Z,7.95
2018-02-17T03:10:43.883Z,7.96
2018-02-17T03:13:11.424Z,7.83
2018-02-17T03:15:38.996Z,7.86
2018-02-17T03:18:06.523Z,7.91
2018-02-17T03:20:34.058Z,7.92
2018-02-17T03:23:01.619Z,7.92
2018-02-17T03:25:29.161Z,7.92
2018-02-17T03:27:56.702Z,7.90
2018-02-17T03:30:24.317Z,7.91
2018-02-17T03:32:51.849Z,7.91
2018-02-17T03:35:19.371Z,7.94
2018-02-17T03:37:46.925Z,7.94
2018-02-17T03:40:14.455Z,7.94
2018-02-17T03:42:41.989Z,7.97
2018-02-17T03:45:09.549Z,7.99
2018-02-17T03:47:37.089Z,8.00
2018-02-17T03:50:04.602Z,8.01
2018-02-17T03:52:32.159Z,7.96
2018-02-17T03:54:59.685Z,8.08
2018-02-17T03:57:27.219Z,8.08
2018-02-17T03:59:54.762Z,8.13
2018-02-17T04:02:22.318Z,8.16
2018-02-17T04:04:49.851Z,8.18
2018-02-17T04:07:17.391Z,8.18
2018-02-17T04:09:44.933Z,8.15
2018-02-17T04:12:12.478Z,8.20
2018-02-17T04:14:40.031Z,8.16
2018-02-17T04:17:07.612Z,8.22
2018-02-17T04:19:35.183Z,8.22
2018-02-17T04:22:02.732Z,8.20
2018-02-17T04:24:30.298Z,8.20
2018-02-17T04:26:57.829Z,8.19
2018-02-17T04:29:25.348Z,8.18
2018-02-17T04:31:52.902Z,8.13
2018-02-17T04:34:20.453Z,8.17
2018-02-17T04:36:48.015Z,8.17
2018-02-17T04:39:15.578Z,8.15
2018-02-17T04:41:44.659Z,8.14
2018-02-17T04:44:17.730Z,8.10
2018-02-17T04:46:50.031Z,8.04
2018-02-17T04:49:17.586Z,8.03
2018-02-17T04:51:50.582Z,8.01
2018-02-17T04:54:33.838Z,7.98
2018-02-17T04:57:02.180Z,7.96
2018-02-17T04:59:35.104Z,7.97
2018-02-17T05:02:08.058Z,7.94
2018-02-17T05:04:38.155Z,7.95
2018-02-17T05:07:22.266Z,7.93
2018-02-17T05:09:50.658Z,7.92
2018-02-17T05:12:18.190Z,7.93
2018-02-17T05:14:48.618Z,7.91
2018-02-17T05:17:21.511Z,7.93
2018-02-17T05:19:54.501Z,7.94
2018-02-17T05:22:24.528Z,7.95
2018-02-17T05:24:57.633Z,7.94
2018-02-17T05:30:30.036Z,8.00
2018-02-17T05:33:17.293Z,8.02
2018-02-17T05:35:59.745Z,8.13
2018-02-17T05:38:27.266Z,8.32
2018-02-17T05:41:04.802Z,8.52
2018-02-17T05:43:32.345Z,8.79
2018-02-17T05:46:02.414Z,9.10
2018-02-17T05:48:32.405Z,9.51
2018-02-17T05:50:59.960Z,9.94
2018-02-17T05:53:27.497Z,10.29
2018-02-17T05:55:55.060Z,10.69
2018-02-17T05:58:22.590Z,11.17
2018-02-17T06:00:50.143Z,11.52
2018-02-17T06:03:17.664Z,12.12
2018-02-17T06:05:45.204Z,12.78
2018-02-17T06:08:12.764Z,12.75
2018-02-17T06:10:40.300Z,12.36
2018-02-17T06:13:07.841Z,12.10
2018-02-17T06:15:35.449Z,11.86
2018-02-17T06:18:02.984Z,11.69
2018-02-17T06:20:30.518Z,11.65
2018-02-17T06:22:58.105Z,11.67
2018-02-17T06:25:25.641Z,11.69
2018-02-17T06:27:53.157Z,12.24
2018-02-17T06:30:20.770Z,12.50
2018-02-17T06:32:48.305Z,13.23
2018-02-17T06:35:15.885Z,13.23
2018-02-17T06:37:43.430Z,14.15
2018-02-17T06:40:10.993Z,15.67
2018-02-17T06:42:38.527Z,16.98
2018-02-17T06:45:06.095Z,16.98
2018-02-17T06:47:33.634Z,17.63
2018-02-17T06:50:01.169Z,17.82
2018-02-17T06:52:28.728Z,18.68
2018-02-17T06:54:56.284Z,19.53
2018-02-17T06:57:23.841Z,20.10
2018-02-17T06:59:51.412Z,20.71
2018-02-17T07:02:18.985Z,21.24
2018-02-17T07:04:46.747Z,21.72
2018-02-17T07:07:14.275Z,22.06
2018-02-17T07:09:41.973Z,22.39
2018-02-17T07:12:09.505Z,22.88
2018-02-17T07:14:37.018Z,23.50
2018-02-17T07:17:04.562Z,24.15
2018-02-17T07:19:32.100Z,24.84
2018-02-17T07:21:59.642Z,25.53
2018-02-17T07:24:27.225Z,26.19
2018-02-17T07:26:55.013Z,26.46
2018-02-17T07:29:22.559Z,25.92
2018-02-17T07:31:50.225Z,26.55
2018-02-17T07:34:17.871Z,25.94
2018-02-17T07:36:45.405Z,25.15
2018-02-17T07:39:12.961Z,24.21
2018-02-17T07:41:40.501Z,22.98
2018-02-17T07:44:08.041Z,22.06
2018-02-17T07:46:36.561Z,21.14
2018-02-17T07:49:04.079Z,20.49
2018-02-17T07:51:31.717Z,19.93
2018-02-17T07:53:59.367Z,19.53
2018-02-17T07:56:26.917Z,19.37
2018-02-17T07:58:54.705Z,19.84
2018-02-17T08:01:22.262Z,20.54
2018-02-17T08:03:49.800Z,20.55
2018-02-17T08:06:17.419Z,21.12
2018-02-17T08:08:44.976Z,20.71
2018-02-17T08:11:12.509Z,21.19
2018-02-17T08:13:40.050Z,22.01
2018-02-17T08:16:07.598Z,22.73
2018-02-17T08:18:35.128Z,24.13
2018-02-17T08:21:02.650Z,25.80
2018-02-17T08:23:30.229Z,27.18
2018-02-17T08:25:57.746Z,28.25
2018-02-17T08:28:25.273Z,29.27
2018-02-17T08:30:52.830Z,29.92
2018-02-17T08:33:20.349Z,30.15
2018-02-17T08:35:47.881Z,29.27
2018-02-17T08:38:15.418Z,29.46
2018-02-17T08:40:43.025Z,29.15
2018-02-17T08:43:10.552Z,28.36
2018-02-17T08:45:38.094Z,29.57
2018-02-17T08:48:05.634Z,30.77
2018-02-17T08:50:33.154Z,31.08
2018-02-17T08:53:00.700Z,31.84
2018-02-17T08:55:28.227Z,32.60
2018-02-17T08:57:55.772Z,33.08
2018-02-17T09:00:23.354Z,33.60
2018-02-17T09:02:50.886Z,33.96
2018-02-17T09:05:18.445Z,33.89
2018-02-17T09:07:46.007Z,33.53
2018-02-17T09:10:13.545Z,33.58
2018-02-17T09:12:41.118Z,33.78
2018-02-17T09:15:08.733Z,33.87
2018-02-17T09:17:36.272Z,34.06
2018-02-17T09:20:03.872Z,34.18
2018-02-17T09:22:31.522Z,34.28
2018-02-17T09:24:59.082Z,34.34
2018-02-17T09:27:26.621Z,34.35
2018-02-17T09:29:54.341Z,34.40
2018-02-17T09:32:22.007Z,34.40
2018-02-17T09:34:49.547Z,34.48
2018-02-17T09:37:17.057Z,34.55
2018-02-17T09:39:44.701Z,34.57
2018-02-17T09:42:12.214Z,34.56
2018-02-17T09:44:39.730Z,34.57
2018-02-17T09:47:07.388Z,34.56
2018-02-17T09:49:34.921Z,34.58
2018-02-17T09:52:02.492Z,33.88
2018-02-17T09:54:30.170Z,33.65
2018-02-17T09:56:57.869Z,33.25
2018-02-17T09:59:25.412Z,32.54
2018-02-17T10:01:53.082Z,32.38
2018-02-17T10:04:20.630Z,32.49
2018-02-17T10:06:48.162Z,32.47
2018-02-17T10:09:15.712Z,32.17
2018-02-17T10:11:43.254Z,31.99
2018-02-17T10:14:10.784Z,31.94
2018-02-17T10:16:38.337Z,31.90
2018-02-17T10:19:05.871Z,31.97
2018-02-17T10:21:33.420Z,31.74
2018-02-17T10:24:00.961Z,31.88
2018-02-17T10:26:28.583Z,31.98
2018-02-17T10:28:56.142Z,32.04
2018-02-17T10:31:23.695Z,31.97
2018-02-17T10:33:51.273Z,31.85
2018-02-17T10:36:18.838Z,31.78
2018-02-17T10:38:46.373Z,31.57
2018-02-17T10:41:13.909Z,31.41
2018-02-17T10:43:41.435Z,31.29
2018-02-17T10:46:08.984Z,31.23
2018-02-17T10:48:36.529Z,31.12
2018-02-17T10:51:04.048Z,31.05
2018-02-17T10:53:31.601Z,30.83
2018-02-17T10:55:59.132Z,30.71
2018-02-17T10:58:26.677Z,30.69
2018-02-17T11:00:54.973Z,30.76
2018-02-17T11:03:22.498Z,30.44
2018-02-17T11:05:50.023Z,30.51
2018-02-17T11:08:17.571Z,30.48
2018-02-17T11:10:45.104Z,30.45
2018-02-17T11:13:12.626Z,30.19
2018-02-17T11:15:40.147Z,29.76
2018-02-17T11:18:07.681Z,29.02
2018-02-17T11:20:35.241Z,28.84
2018-02-17T11:23:02.820Z,28.28
2018-02-17T11:25:30.332Z,28.77
2018-02-17T11:27:57.852Z,29.48
2018-02-17T11:30:25.402Z,29.62
2018-02-17T11:32:52.925Z,29.80
2018-02-17T11:35:20.466Z,29.88
2018-02-17T11:37:48.007Z,29.23
2018-02-17T11:40:15.531Z,29.23
2018-02-17T11:42:43.227Z,29.15
2018-02-17T11:45:10.763Z,28.91
2018-02-17T11:47:38.338Z,28.85
2018-02-17T11:50:05.871Z,28.58
2018-02-17T11:52:33.389Z,28.30
2018-02-17T11:55:01.093Z,28.03
2018-02-17T11:57:28.644Z,27.61
2018-02-17T11:59:56.175Z,27.04
2018-02-17T12:02:23.754Z,26.71
2018-02-17T12:04:51.286Z,26.32
2018-02-17T12:07:18.854Z,25.94
2018-02-17T12:09:46.396Z,25.45
2018-02-17T12:12:13.928Z,25.09
2018-02-17T12:14:41.494Z,24.81
2018-02-17T12:17:09.026Z,23.57
2018-02-17T12:19:36.558Z,23.61
2018-02-17T12:22:04.094Z,23.92
2018-02-17T12:24:31.647Z,24.01
2018-02-17T12:26:59.319Z,24.03
2018-02-17T12:29:26.838Z,24.00
2018-02-17T12:31:54.401Z,23.78
2018-02-17T12:34:21.982Z,23.79
2018-02-17T12:36:49.480Z,23.78
2018-02-17T12:39:17.057Z,23.77
2018-02-17T12:41:44.583Z,23.67
2018-02-17T12:44:12.182Z,23.70
2018-02-17T12:46:39.698Z,23.62
2018-02-17T12:49:07.223Z,23.43
2018-02-17T12:51:34.760Z,22.81
2018-02-17T12:54:03.224Z,23.04
2018-02-17T12:56:30.782Z,23.08
2018-02-17T12:58:58.295Z,23.11
2018-02-17T13:01:25.844Z,22.94
2018-02-17T13:03:53.358Z,22.78
2018-02-17T13:06:20.885Z,22.75
2018-02-17T13:08:48.417Z,22.70
2018-02-17T13:11:15.938Z,21.69
2018-02-17T13:13:43.551Z,21.45
2018-02-17T13:16:11.065Z,21.58
2018-02-17T13:18:38.582Z,21.37
2018-02-17T13:21:06.116Z,21.56
2018-02-17T13:23:33.654Z,21.66
2018-02-17T13:26:01.225Z,21.68
2018-02-17T13:28:28.764Z,21.28
2018-02-17T13:30:56.303Z,21.49
2018-02-17T13:33:23.868Z,21.48
2018-02-17T13:35:51.425Z,21.42
2018-02-17T13:38:18.989Z,21.30
2018-02-17T13:40:46.538Z,21.24
2018-02-17T13:43:14.305Z,21.14
2018-02-17T13:45:41.863Z,21.01
2018-02-17T13:48:09.409Z,20.90
2018-02-17T13:50:37.206Z,20.84
2018-02-17T13:53:04.754Z,20.68
2018-02-17T13:55:32.295Z,20.53
2018-02-17T13:58:00.027Z,20.42
2018-02-17T14:00:27.416Z,20.29
2018-02-17T14:02:54.955Z,20.10
2018-02-17T14:05:22.505Z,19.97
2018-02-17T14:07:50.040Z,19.82
2018-02-17T14:10:17.568Z,19.64
2018-02-17T14:12:45.183Z,19.45
2018-02-17T14:15:12.707Z,19.31
2018-02-17T14:17:40.261Z,19.18
2018-02-17T14:20:07.807Z,19.10
2018-02-17T14:22:35.335Z,18.94
2018-02-17T14:25:02.941Z,18.81
2018-02-17T14:27:30.472Z,18.68
2018-02-17T14:29:58.003Z,18.49
2018-02-17T14:32:25.559Z,18.05
2018-02-17T14:34:53.077Z,17.35
2018-02-17T14:37:20.613Z,17.37
2018-02-17T14:39:48.163Z,17.49
2018-02-17T14:42:15.696Z,17.42
2018-02-17T14:44:43.296Z,16.56
2018-02-17T14:47:10.875Z,16.19
2018-02-17T14:49:38.431Z,16.49
2018-02-17T14:52:05.985Z,16.69
2018-02-17T14:54:33.512Z,16.26
2018-02-17T14:57:01.077Z,15.08
2018-02-17T14:59:28.608Z,14.59
2018-02-17T15:01:56.474Z,14.54
2018-02-17T15:04:25.160Z,14.48
2018-02-17T15:06:52.700Z,14.85
2018-02-17T15:09:20.250Z,14.52
2018-02-17T15:11:47.814Z,14.50
2018-02-17T15:14:15.550Z,14.50
2018-02-17T15:16:43.076Z,14.33
2018-02-17T15:19:10.602Z,14.57
2018-02-17T15:21:38.139Z,14.98
2018-02-17T15:24:05.696Z,15.36
2018-02-17T15:26:33.378Z,15.07
2018-02-17T15:29:00.911Z,15.43
2018-02-17T15:31:28.474Z,15.58
2018-02-17T15:33:56.063Z,15.65
2018-02-17T15:36:23.630Z,15.65
2018-02-17T15:38:51.162Z,15.60
2018-02-17T15:41:18.761Z,15.59
2018-02-17T15:43:47.261Z,15.54
2018-02-17T15:46:14.787Z,15.49
2018-02-17T15:48:42.403Z,15.17
2018-02-17T15:51:09.927Z,14.98
2018-02-17T15:53:38.762Z,14.55
2018-02-17T15:56:06.436Z,14.22
2018-02-17T15:58:33.958Z,13.75
2018-02-17T16:01:01.535Z,13.50
2018-02-17T16:03:29.068Z,13.25
2018-02-17T16:05:56.608Z,12.80
2018-02-17T16:08:24.137Z,13.03
2018-02-17T16:10:51.674Z,12.64
2018-02-17T16:13:19.227Z,13.20
2018-02-17T16:15:46.849Z,12.63
2018-02-17T16:18:14.390Z,13.11
2018-02-17T16:20:42.016Z,12.52
2018-02-17T16:23:09.621Z,12.35
2018-02-17T16:25:37.165Z,12.37
2018-02-17T16:28:04.698Z,12.03
2018-02-17T16:30:32.245Z,12.05
2018-02-17T16:32:59.804Z,11.67
2018-02-17T16:35:27.400Z,12.19
2018-02-17T16:37:55.053Z,12.45
2018-02-17T16:40:22.657Z,12.60
2018-02-17T16:42:50.193Z,12.78
2018-02-17T16:45:17.898Z,12.86
2018-02-17T16:47:45.904Z,12.87
2018-02-17T16:50:13.505Z,12.98
2018-02-17T16:52:41.186Z,13.00
2018-02-17T16:55:08.783Z,13.01
2018-02-17T16:57:36.340Z,13.00
2018-02-17T17:00:09.753Z,13.03
2018-02-17T17:02:37.266Z,13.01
2018-02-17T17:05:04.920Z,13.00
2018-02-17T17:07:32.474Z,13.02
2018-02-17T17:10:00.004Z,13.03
2018-02-17T17:12:27.539Z,13.01
2018-02-17T17:14:55.077Z,13.02
2018-02-17T17:17:22.844Z,13.03
2018-02-17T17:19:50.390Z,13.04
2018-02-17T17:22:17.907Z,13.03
2018-02-17T17:24:45.432Z,12.94
2018-02-17T17:27:12.996Z,12.98
2018-02-17T17:29:40.557Z,12.95
2018-02-17T17:32:08.159Z,12.96
2018-02-17T17:34:35.700Z,12.95
2018-02-17T17:37:03.239Z,12.89
2018-02-17T17:39:30.776Z,12.80
2018-02-17T17:41:58.304Z,12.82
2018-02-17T17:44:25.884Z,12.85
2018-02-17T17:46:53.450Z,12.80
2018-02-17T17:49:20.983Z,12.77
2018-02-17T17:51:48.508Z,12.84
2018-02-17T17:54:16.034Z,12.77
2018-02-17T17:56:43.832Z,12.66
2018-02-17T17:59:11.357Z,12.65
2018-02-17T18:01:38.917Z,12.65
2018-02-17T18:04:06.450Z,12.60
2018-02-17T18:06:34.310Z,12.57
2018-02-17T18:09:01.838Z,12.54
2018-02-17T18:11:29.685Z,12.47
2018-02-17T18:13:57.264Z,12.44
2018-02-17T18:16:25.715Z,12.35
2018-02-17T18:18:53.280Z,12.35
2018-02-17T18:21:20.809Z,12.38
2018-02-17T18:23:48.361Z,12.35
2018-02-17T18:26:15.935Z,12.32
2018-02-17T18:28:43.761Z,12.27
2018-02-17T18:31:12.396Z,12.25
2018-02-17T18:33:39.936Z,12.17
2018-02-17T18:36:07.455Z,12.10
2018-02-17T18:38:34.966Z,12.16
2018-02-17T18:41:02.504Z,12.15
2018-02-17T18:43:30.046Z,12.05
2018-02-17T18:45:57.560Z,12.07
2018-02-17T18:48:25.070Z,12.03
2018-02-17T18:50:52.618Z,12.01
2018-02-17T18:53:20.512Z,11.97
2018-02-17T18:55:48.086Z,11.90
2018-02-17T18:58:15.607Z,11.88
2018-02-17T19:00:43.157Z,11.85
2018-02-17T19:03:10.709Z,11.81
2018-02-17T19:05:38.236Z,11.79
2018-02-17T19:08:05.788Z,11.80
2018-02-17T19:10:33.345Z,11.76
2018-02-17T19:13:01.699Z,11.72
2018-02-17T19:15:29.237Z,11.72
2018-02-17T19:17:56.761Z,11.69
2018-02-17T19:20:24.283Z,11.62
2018-02-17T19:22:51.791Z,11.65
2018-02-17T19:25:19.338Z,11.64
2018-02-17T19:27:46.908Z,11.58
2018-02-17T19:30:14.809Z,11.53
2018-02-17T19:32:42.355Z,11.50
2018-02-17T19:35:11.100Z,11.46
2018-02-17T19:37:38.618Z,11.47
2018-02-17T19:40:06.155Z,11.47
2018-02-17T19:42:33.716Z,11.41
2018-02-17T19:45:01.869Z,11.40
2018-02-17T19:47:29.416Z,11.35
2018-02-17T19:49:56.955Z,11.31
2018-02-17T19:52:24.554Z,11.30
2018-02-17T19:54:52.104Z,11.24
2018-02-17T19:57:19.626Z,11.23
2018-02-17T19:59:47.145Z,11.12
2018-02-17T20:02:14.666Z,11.15
2018-02-17T20:04:42.196Z,11.15
2018-02-17T20:07:09.758Z,11.13
2018-02-17T20:09:37.305Z,11.10
2018-02-17T20:12:04.853Z,11.09
2018-02-17T20:14:32.379Z,11.06
2018-02-17T20:16:59.910Z,11.03
2018-02-17T20:19:27.561Z,11.00
2018-02-17T20:21:56.015Z,11.03
2018-02-17T20:24:23.534Z,11.03
2018-02-17T20:26:51.048Z,10.95
2018-02-17T20:29:18.576Z,10.97
2018-02-17T20:31:46.140Z,10.97
2018-02-17T20:34:13.689Z,10.94
2018-02-17T20:36:41.230Z,10.92
2018-02-17T20:39:08.750Z,10.92
2018-02-17T20:41:36.289Z,10.90
2018-02-17T20:44:03.848Z,10.92
2018-02-17T20:46:31.393Z,10.92
2018-02-17T20:48:58.956Z,10.91
2018-02-17T20:51:26.478Z,10.89
2018-02-17T20:53:54.031Z,10.88
2018-02-17T20:56:21.616Z,10.80
2018-02-17T20:58:49.151Z,10.87
2018-02-17T21:01:16.723Z,10.84
2018-02-17T21:03:44.296Z,10.85
2018-02-17T21:06:12.004Z,10.80
2018-02-17T21:08:39.521Z,10.82
2018-02-17T21:11:07.042Z,10.80
2018-02-17T21:13:34.595Z,10.80
2018-02-17T21:16:02.123Z,10.82
2018-02-17T21:18:29.656Z,10.81
2018-02-17T21:20:57.192Z,10.82
2018-02-17T21:23:24.707Z,10.80
2018-02-17T21:25:52.256Z,10.81
2018-02-17T21:28:19.774Z,10.78
2018-02-17T21:30:47.343Z,10.78
2018-02-17T21:33:14.881Z,10.75
2018-02-17T21:35:42.419Z,10.73
2018-02-17T21:38:09.950Z,10.71
2018-02-17T21:40:37.493Z,10.73
2018-02-17T21:43:05.047Z,10.72
2018-02-17T21:45:32.584Z,10.72
2018-02-17T21:48:00.118Z,10.72
2018-02-17T21:50:27.642Z,10.71
2018-02-17T21:52:55.176Z,10.71
2018-02-17T21:55:23.389Z,10.69
2018-02-17T21:57:50.920Z,10.68
2018-02-17T22:00:18.480Z,10.67
2018-02-17T22:02:46.017Z,10.68
2018-02-17T22:05:13.552Z,10.66
2018-02-17T22:07:41.076Z,10.67
2018-02-17T22:10:08.598Z,10.65
2018-02-17T22:12:36.232Z,10.67
2018-02-17T22:15:03.785Z,10.64
2018-02-17T22:17:31.313Z,10.64
2018-02-17T22:19:58.852Z,10.65
2018-02-17T22:22:26.404Z,10.65
2018-02-17T22:24:53.968Z,10.62
2018-02-17T22:27:21.502Z,10.65
2018-02-17T22:29:49.048Z,10.63
2018-02-17T22:32:16.589Z,10.63
2018-02-17T22:34:44.119Z,10.63
2018-02-17T22:37:11.697Z,10.65
2018-02-17T22:39:39.227Z,10.64
2018-02-17T22:42:06.827Z,10.64
2018-02-17T22:44:34.378Z,10.64
2018-02-17T22:47:01.898Z,10.62
2018-02-17T22:49:29.549Z,10.64
2018-02-17T22:51:57.068Z,10.63
2018-02-17T22:54:24.652Z,10.60
2018-02-17T22:56:52.206Z,10.58
2018-02-17T22:59:19.737Z,10.60
2018-02-17T23:01:47.356Z,10.57
2018-02-17T23:04:14.885Z,10.58
2018-02-17T23:06:42.410Z,10.54
2018-02-17T23:09:09.968Z,10.54
2018-02-17T23:11:37.498Z,10.55
2018-02-17T23:14:05.052Z,10.54
2018-02-17T23:16:32.578Z,10.55
2018-02-17T23:19:00.108Z,10.50
2018-02-17T23:21:27.644Z,10.55
2018-02-17T23:23:55.175Z,10.53
2018-02-17T23:26:22.769Z,10.53
2018-02-17T23:28:51.095Z,10.54
2018-02-17T23:31:18.673Z,10.53
2018-02-17T23:33:46.204Z,10.50
2018-02-17T23:36:13.741Z,10.51
2018-02-17T23:38:41.265Z,10.51
2018-02-17T23:41:08.795Z,10.52
2018-02-17T23:43:36.344Z,10.49
2018-02-17T23:46:03.867Z,10.46
2018-02-17T23:48:31.395Z,10.49
2018-02-17T23:50:58.916Z,10.47
2018-02-17T23:53:26.433Z,10.44
2018-02-17T23:55:53.942Z,10.44
2018-02-17T23:58:21.476Z,10.46
